createdAt,value
2023-05-08T00:00:42.059Z,99680.56
2023-05-08T00:03:08.569Z,99683.97
2023-05-08T00:05:35.335Z,99698.00
2023-05-08T00:08:02.128Z,99702.59
2023-05-08T00:10:28.981Z,99707.84
2023-05-08T00:12:56.148Z,99700.91
2023-05-08T00:15:22.732Z,99697.50
2023-05-08T00:17:49.165Z,99690.56
2023-05-08T00:20:15.802Z,99678.44
2023-05-08T00:22:42.160Z,99691.69
2023-05-08T00:25:09.038Z,99690.78
2023-05-08T00:27:35.582Z,99689.16
2023-05-08T00:30:01.953Z,99688.28
2023-05-08T00:32:28.884Z,99675.31
2023-05-08T00:34:55.372Z,99679.84
2023-05-08T00:37:21.791Z,99671.38
2023-05-08T00:39:48.135Z,99671.38
2023-05-08T00:42:14.546Z,99663.59
2023-05-08T00:44:41.219Z,99654.13
2023-05-08T00:47:07.817Z,99653.22
2023-05-08T00:49:36.040Z,99647.44
2023-05-08T00:52:02.983Z,99611.88
2023-05-08T00:54:29.392Z,99612.97
2023-05-08T00:56:55.773Z,99588.09
2023-05-08T00:59:22.833Z,99591.50
2023-05-08T01:01:49.359Z,99574.34
2023-05-08T01:04:16.196Z,99565.81
2023-05-08T01:06:42.543Z,99560.59
2023-05-08T01:09:08.887Z,99573.53
2023-05-08T01:11:46.119Z,99558.09
2023-05-08T01:14:29.870Z,99550.16
2023-05-08T01:17:01.156Z,99542.69
2023-05-08T01:19:49.096Z,99531.50
2023-05-08T01:22:46.168Z,99521.38
2023-05-08T01:25:37.286Z,99501.13
2023-05-08T01:28:28.728Z,99488.78
2023-05-08T01:31:01.209Z,99500.00
2023-05-08T01:33:37.307Z,99496.34
2023-05-08T01:36:15.162Z,99503.31
2023-05-08T01:39:19.280Z,99495.59
2023-05-08T01:41:49.254Z,99500.91
2023-05-08T01:44:17.211Z,99506.03
2023-05-08T01:46:45.757Z,99490.47
2023-05-08T01:49:52.746Z,99490.69
2023-05-08T01:52:26.493Z,99481.78
2023-05-08T01:54:58.412Z,99489.84
2023-05-08T01:57:25.389Z,99471.81
2023-05-08T01:59:51.908Z,99438.88
2023-05-08T02:02:18.367Z,99439.63
2023-05-08T02:04:44.778Z,99460.63
2023-05-08T02:07:11.282Z,99455.47
2023-05-08T02:09:37.901Z,99461.47
2023-05-08T02:12:04.278Z,99471.06
2023-05-08T02:14:30.664Z,99461.69
2023-05-08T02:16:57.345Z,99475.34
2023-05-08T02:19:23.906Z,99484.97
2023-05-08T02:21:50.341Z,99495.41
2023-05-08T02:24:16.744Z,99474.56
2023-05-08T02:26:44.204Z,99482.34
2023-05-08T02:29:10.675Z,99497.91
2023-05-08T02:31:38.586Z,99499.59
2023-05-08T02:34:05.161Z,99505.69
2023-05-08T02:36:31.503Z,99492.91
2023-05-08T02:38:58.801Z,99484.50
2023-05-08T02:41:27.342Z,99469.75
2023-05-08T02:43:53.748Z,99468.94
2023-05-08T02:46:32.758Z,99463.84
2023-05-08T02:49:02.020Z,99452.63
2023-05-08T02:51:57.907Z,99427.31
2023-05-08T02:54:46.031Z,99422.97
2023-05-08T02:57:24.810Z,99425.91
2023-05-08T03:00:14.604Z,99420.69
2023-05-08T03:02:42.733Z,99424.41
2023-05-08T03:05:28.822Z,99408.44
2023-05-08T03:07:56.010Z,99364.03
2023-05-08T03:10:25.114Z,99355.34
2023-05-08T03:12:52.387Z,99355.84
2023-05-08T03:15:29.341Z,99376.84
2023-05-08T03:17:57.725Z,99388.22
2023-05-08T03:20:24.863Z,99397.69
2023-05-08T03:22:51.750Z,99410.78
2023-05-08T03:25:19.706Z,99415.91
2023-05-08T03:27:46.240Z,99416.69
2023-05-08T03:30:12.891Z,99429.72
2023-05-08T03:32:39.495Z,99431.66
2023-05-08T03:35:06.555Z,99417.91
2023-05-08T03:37:33.110Z,99419.53
2023-05-08T03:39:59.481Z,99437.09
2023-05-08T03:42:26.081Z,99416.22
2023-05-08T03:44:52.717Z,99417.38
2023-05-08T03:47:19.948Z,99390.34
2023-05-08T03:49:46.747Z,99380.75
2023-05-08T03:52:13.464Z,99390.28
2023-05-08T03:54:40.020Z,99384.97
2023-05-08T03:57:06.412Z,99364.94
2023-05-08T03:59:42.158Z,99376.19
2023-05-08T04:02:17.686Z,99400.41
2023-05-08T04:04:45.447Z,99392.84
2023-05-08T04:07:42.924Z,99367.56
2023-05-08T04:10:12.550Z,99367.47
2023-05-08T04:12:47.055Z,99350.22
2023-05-08T04:15:17.953Z,99347.31
2023-05-08T04:17:47.864Z,99330.53
2023-05-08T04:20:16.595Z,99348.72
2023-05-08T04:22:43.176Z,99382.78
2023-05-08T04:25:09.772Z,99355.22
2023-05-08T04:27:36.337Z,99356.69
2023-05-08T04:30:02.822Z,99375.56
2023-05-08T04:32:30.197Z,99382.47
2023-05-08T04:34:56.644Z,99401.41
2023-05-08T04:37:27.177Z,99397.69
2023-05-08T04:39:53.643Z,99411.53
2023-05-08T04:42:20.490Z,99423.47
2023-05-08T04:44:47.740Z,99447.84
2023-05-08T04:47:14.500Z,99460.00
2023-05-08T04:49:41.003Z,99452.84
2023-05-08T04:52:08.042Z,99484.97
2023-05-08T04:54:34.615Z,99500.56
2023-05-08T04:57:01.186Z,99506.44
2023-05-08T04:59:28.241Z,99522.03
2023-05-08T05:01:54.732Z,99533.84
2023-05-08T05:04:21.984Z,99547.59
2023-05-08T05:06:48.385Z,99568.53
2023-05-08T05:09:14.752Z,99559.75
2023-05-08T05:11:41.100Z,99568.25
2023-05-08T05:14:07.498Z,99569.88
2023-05-08T05:16:33.908Z,99585.44
2023-05-08T05:19:00.313Z,99602.72
2023-05-08T05:21:28.052Z,99612.03
2023-05-08T05:23:54.423Z,99612.94
2023-05-08T05:26:21.697Z,99637.34
2023-05-08T05:28:48.783Z,99639.91
2023-05-08T05:31:15.256Z,99636.34
2023-05-08T05:33:42.452Z,99638.84
2023-05-08T05:36:09.036Z,99643.88
2023-05-08T05:38:35.383Z,99646.31
2023-05-08T05:41:01.718Z,99649.75
2023-05-08T05:43:28.263Z,99651.22
2023-05-08T05:45:56.054Z,99651.94
2023-05-08T05:48:22.391Z,99665.75
2023-05-08T05:50:48.944Z,99666.44
2023-05-08T05:53:15.785Z,99663.69
2023-05-08T05:55:42.266Z,99674.97
2023-05-08T05:58:08.863Z,99675.63
2023-05-08T06:00:35.342Z,99672.13
2023-05-08T06:03:02.798Z,99672.69
2023-05-08T06:05:30.000Z,99682.09
2023-05-08T06:07:57.125Z,99661.97
2023-05-08T06:10:23.609Z,99664.53
2023-05-08T06:12:50.036Z,99678.38
2023-05-08T06:15:16.389Z,99674.75
2023-05-08T06:17:42.782Z,99686.06
2023-05-08T06:20:09.871Z,99675.63
2023-05-08T06:22:39.164Z,99688.63
2023-05-08T06:25:07.109Z,99694.56
2023-05-08T06:27:34.864Z,99695.34
2023-05-08T06:30:01.517Z,99689.81
2023-05-08T06:32:27.896Z,99705.13
2023-05-08T06:34:54.468Z,99695.22
2023-05-08T06:37:20.838Z,99708.06
2023-05-08T06:39:48.969Z,99713.00
2023-05-08T06:42:17.134Z,99708.50
2023-05-08T06:44:43.529Z,99703.72
2023-05-08T06:47:09.945Z,99725.34
2023-05-08T06:49:36.697Z,99739.16
2023-05-08T06:52:03.093Z,99740.59
2023-05-08T06:54:29.475Z,99746.44
2023-05-08T06:56:56.039Z,99743.69
2023-05-08T06:59:25.285Z,99739.88
2023-05-08T07:01:51.657Z,99738.53
2023-05-08T07:04:18.345Z,99770.50
2023-05-08T07:06:44.766Z,99786.91
2023-05-08T07:09:12.137Z,99802.28
2023-05-08T07:11:38.821Z,99817.63
2023-05-08T07:14:05.219Z,99831.16
2023-05-08T07:16:31.734Z,99833.34
2023-05-08T07:18:58.390Z,99856.63
2023-05-08T07:21:25.019Z,99888.97
2023-05-08T07:23:53.658Z,99919.47
2023-05-08T07:26:20.219Z,99929.47
2023-05-08T07:28:46.627Z,99926.59
2023-05-08T07:31:13.126Z,99948.50
2023-05-08T07:33:39.773Z,99929.84
2023-05-08T07:36:06.277Z,99944.47
2023-05-08T07:38:32.969Z,99984.81
2023-05-08T07:41:01.719Z,99982.78
2023-05-08T07:43:28.197Z,99983.22
2023-05-08T07:45:54.531Z,99987.22
2023-05-08T07:48:23.633Z,99998.66
2023-05-08T07:50:50.441Z,99998.56
2023-05-08T07:53:17.106Z,100029.00
2023-05-08T07:55:43.602Z,100029.44
2023-05-08T07:58:09.937Z,100047.44
2023-05-08T08:00:36.538Z,100059.59
2023-05-08T08:03:03.194Z,100091.91
2023-05-08T08:05:29.685Z,100107.50
2023-05-08T08:07:56.081Z,100111.72
2023-05-08T08:10:22.738Z,100112.38
2023-05-08T08:12:49.168Z,100145.97
2023-05-08T08:15:15.613Z,100172.19
2023-05-08T08:17:42.168Z,100206.00
2023-05-08T08:20:09.008Z,100202.44
2023-05-08T08:22:37.208Z,100210.81
2023-05-08T08:25:03.837Z,100256.25
2023-05-08T08:27:30.156Z,100273.56
2023-05-08T08:30:12.929Z,100319.94
2023-05-08T08:32:43.217Z,100359.63
2023-05-08T08:35:09.827Z,100327.69
2023-05-08T08:37:36.234Z,100348.50
2023-05-08T08:40:03.515Z,100374.56
2023-05-08T08:42:29.880Z,100370.88
2023-05-08T08:44:56.326Z,100417.16
2023-05-08T08:47:23.847Z,100422.97
2023-05-08T08:49:50.998Z,100427.59
2023-05-08T08:52:28.371Z,100492.03
2023-05-08T08:54:55.508Z,100475.09
2023-05-08T08:57:21.872Z,100529.00
2023-05-08T08:59:48.529Z,100556.38
2023-05-08T09:02:17.908Z,100492.34
2023-05-08T09:04:44.736Z,100498.16
2023-05-08T09:07:11.953Z,100540.97
2023-05-08T09:09:41.697Z,100615.84
2023-05-08T09:12:08.328Z,100632.69
2023-05-08T09:14:36.848Z,100667.06
2023-05-08T09:17:03.279Z,100628.66
2023-05-08T09:19:29.713Z,100655.25
2023-05-08T09:21:59.206Z,100670.97
2023-05-08T09:24:28.606Z,100684.09
2023-05-08T09:26:56.591Z,100707.13
2023-05-08T09:29:23.205Z,100657.47
2023-05-08T09:31:52.209Z,100652.16
2023-05-08T09:34:27.036Z,100658.09
2023-05-08T09:37:16.739Z,100685.81
2023-05-08T09:39:45.806Z,100703.13
2023-05-08T09:42:12.148Z,100720.41
2023-05-08T09:44:45.701Z,100752.69
2023-05-08T09:47:13.248Z,100785.16
2023-05-08T09:49:40.794Z,100815.91
2023-05-08T09:52:08.194Z,100762.13
2023-05-08T09:54:34.806Z,100806.91
2023-05-08T09:57:01.431Z,100806.63
2023-05-08T09:59:28.898Z,100835.66
2023-05-08T10:01:56.212Z,100795.47
2023-05-08T10:04:36.007Z,100850.88
2023-05-08T10:07:02.916Z,100846.34
2023-05-08T10:09:39.319Z,100828.16
2023-05-08T10:12:09.395Z,100841.31
2023-05-08T10:14:35.978Z,100840.84
2023-05-08T10:17:02.504Z,100892.38
2023-05-08T10:19:29.127Z,100916.22
2023-05-08T10:21:56.186Z,100917.72
2023-05-08T10:24:27.354Z,100950.00
2023-05-08T10:27:17.657Z,100977.91
2023-05-08T10:29:47.143Z,101018.19
2023-05-08T10:32:14.415Z,101052.75
2023-05-08T10:34:41.070Z,101110.69
2023-05-08T10:37:11.105Z,101127.84
2023-05-08T10:39:37.442Z,101178.53
2023-05-08T10:42:04.086Z,101203.81
2023-05-08T10:44:30.627Z,101237.91
2023-05-08T10:47:08.484Z,101268.66
2023-05-08T10:49:47.815Z,101322.59
2023-05-08T10:52:29.105Z,101438.44
2023-05-08T10:55:06.066Z,101472.41
2023-05-08T10:57:32.519Z,101484.88
2023-05-08T10:59:59.015Z,101484.34
2023-05-08T11:02:30.157Z,101505.69
2023-05-08T11:05:14.964Z,101504.47
2023-05-08T11:07:55.528Z,101510.56
2023-05-08T11:10:22.747Z,101527.91
2023-05-08T11:12:49.425Z,101537.06
2023-05-08T11:15:15.937Z,101542.28
2023-05-08T11:17:46.624Z,101554.25
2023-05-08T11:20:13.293Z,101555.91
2023-05-08T11:22:47.252Z,101556.41
2023-05-08T11:25:13.634Z,101559.13
2023-05-08T11:28:01.040Z,101558.66
2023-05-08T11:30:34.635Z,101556.47
2023-05-08T11:33:04.352Z,101540.16
2023-05-08T11:35:41.534Z,101566.25
2023-05-08T11:38:30.372Z,101554.22
2023-05-08T11:41:03.356Z,101535.19
2023-05-08T11:43:32.865Z,101550.22
2023-05-08T11:46:06.857Z,101529.94
2023-05-08T11:48:33.509Z,101537.88
2023-05-08T11:51:00.171Z,101540.38
2023-05-08T11:53:26.818Z,101537.59
2023-05-08T11:55:53.453Z,101551.75
2023-05-08T11:58:19.866Z,101537.13
2023-05-08T12:00:46.722Z,101535.22
2023-05-08T12:03:16.747Z,101536.50
2023-05-08T12:05:43.330Z,101539.69
2023-05-08T12:08:10.415Z,101535.19
2023-05-08T12:10:46.883Z,101538.16
2023-05-08T12:13:18.366Z,101540.72
2023-05-08T12:15:55.413Z,101543.34
2023-05-08T12:18:22.305Z,101533.66
2023-05-08T12:20:57.184Z,101533.41
2023-05-08T12:23:25.021Z,101530.47
2023-05-08T12:25:55.528Z,101528.97
2023-05-08T12:28:22.138Z,101532.28
2023-05-08T12:30:48.719Z,101531.72
2023-05-08T12:33:15.377Z,101512.66
2023-05-08T12:35:41.795Z,101531.34
2023-05-08T12:38:08.355Z,101527.88
2023-05-08T12:40:42.797Z,101527.78
2023-05-08T12:43:09.321Z,101514.66
2023-05-08T12:45:38.583Z,101528.25
2023-05-08T12:48:06.586Z,101521.75
2023-05-08T12:50:41.068Z,101525.66
2023-05-08T12:53:09.347Z,101517.13
2023-05-08T12:55:36.632Z,101514.13
2023-05-08T12:58:06.581Z,101522.25
2023-05-08T13:00:39.863Z,101517.25
2023-05-08T13:03:07.521Z,101519.03
2023-05-08T13:05:35.536Z,101515.75
2023-05-08T13:08:06.177Z,101520.16
2023-05-08T13:10:49.909Z,101511.81
2023-05-08T13:13:20.767Z,101515.78
2023-05-08T13:15:47.634Z,101510.00
2023-05-08T13:18:14.864Z,101522.66
2023-05-08T13:20:41.439Z,101511.34
2023-05-08T13:23:07.989Z,101498.25
2023-05-08T13:25:38.188Z,101493.19
2023-05-08T13:28:05.197Z,101501.97
2023-05-08T13:30:31.840Z,101488.97
2023-05-08T13:32:58.466Z,101484.28
2023-05-08T13:35:25.159Z,101484.94
2023-05-08T13:37:51.553Z,101486.16
2023-05-08T13:40:18.256Z,101485.19
2023-05-08T13:42:44.805Z,101489.22
2023-05-08T13:45:13.349Z,101485.06
2023-05-08T13:47:43.119Z,101484.13
2023-05-08T13:50:10.325Z,101480.47
2023-05-08T13:52:37.795Z,101480.47
2023-05-08T13:55:08.000Z,101476.78
2023-05-08T13:57:34.590Z,101468.22
2023-05-08T14:00:01.304Z,101459.91
2023-05-08T14:02:28.058Z,101475.31
2023-05-08T14:04:54.527Z,101462.72
2023-05-08T14:07:20.937Z,101464.41
2023-05-08T14:09:47.332Z,101460.16
2023-05-08T14:12:13.886Z,101461.63
2023-05-08T14:14:40.276Z,101460.25
2023-05-08T14:17:06.884Z,101456.69
2023-05-08T14:19:33.546Z,101453.03
2023-05-08T14:22:00.162Z,101458.50
2023-05-08T14:24:26.612Z,101450.44
2023-05-08T14:26:52.976Z,101456.81
2023-05-08T14:29:19.376Z,101458.88
2023-05-08T14:31:45.846Z,101458.72
2023-05-08T14:34:12.449Z,101458.56
2023-05-08T14:36:38.821Z,101455.22
2023-05-08T14:39:05.190Z,101456.50
2023-05-08T14:41:31.841Z,101445.94
2023-05-08T14:43:58.316Z,101450.19
2023-05-08T14:46:24.969Z,101440.59
2023-05-08T14:48:51.515Z,101443.22
2023-05-08T14:51:19.252Z,101442.25
2023-05-08T14:53:46.365Z,101444.97
2023-05-08T14:56:14.159Z,101444.22
2023-05-08T14:58:40.675Z,101442.47
2023-05-08T15:01:07.033Z,101442.97
2023-05-08T15:03:33.748Z,101443.50
2023-05-08T15:06:00.282Z,101436.13
2023-05-08T15:08:26.692Z,101435.91
2023-05-08T15:10:53.554Z,101429.25
2023-05-08T15:13:19.942Z,101424.59
2023-05-08T15:15:46.499Z,101427.13
2023-05-08T15:18:13.037Z,101417.56
2023-05-08T15:20:39.409Z,101421.50
2023-05-08T15:23:05.776Z,101421.69
2023-05-08T15:25:32.211Z,101414.44
2023-05-08T15:28:00.693Z,101417.94
2023-05-08T15:30:27.626Z,101413.72
2023-05-08T15:32:54.265Z,101413.13
2023-05-08T15:35:20.799Z,101413.69
2023-05-08T15:37:47.233Z,101414.28
2023-05-08T15:40:13.662Z,101425.38
2023-05-08T15:42:40.012Z,101403.88
2023-05-08T15:45:06.881Z,101403.47
2023-05-08T15:47:33.304Z,101406.84
2023-05-08T15:49:59.743Z,101410.47
2023-05-08T15:52:26.296Z,101407.59
2023-05-08T15:54:52.721Z,101408.56
2023-05-08T15:57:19.065Z,101410.16
2023-05-08T15:59:45.685Z,101414.72
2023-05-08T16:02:12.095Z,101400.72
2023-05-08T16:04:38.470Z,101399.31
2023-05-08T16:07:04.896Z,101397.13
2023-05-08T16:09:31.243Z,101397.72
2023-05-08T16:11:57.589Z,101403.78
2023-05-08T16:14:24.082Z,101400.75
2023-05-08T16:16:50.640Z,101385.34
2023-05-08T16:19:17.205Z,101394.44
2023-05-08T16:21:46.508Z,101391.75
2023-05-08T16:24:12.920Z,101399.88
2023-05-08T16:26:39.341Z,101401.03
2023-05-08T16:29:05.760Z,101384.22
2023-05-08T16:31:32.152Z,101385.59
2023-05-08T16:33:58.583Z,101386.53
2023-05-08T16:36:24.988Z,101372.19
2023-05-08T16:38:51.431Z,101373.97
2023-05-08T16:41:17.873Z,101382.53
2023-05-08T16:43:44.305Z,101390.16
2023-05-08T16:46:10.842Z,101396.50
2023-05-08T16:48:37.253Z,101381.19
2023-05-08T16:51:03.743Z,101390.16
2023-05-08T16:53:31.818Z,101390.25
2023-05-08T16:55:58.200Z,101389.63
2023-05-08T16:58:27.040Z,101388.97
2023-05-08T17:00:53.622Z,101383.09
2023-05-08T17:03:20.174Z,101381.81
2023-05-08T17:05:46.647Z,101391.81
2023-05-08T17:08:13.208Z,101389.81
2023-05-08T17:10:39.688Z,101391.06
2023-05-08T17:13:06.159Z,101381.72
2023-05-08T17:15:32.614Z,101377.41
2023-05-08T17:17:59.139Z,101381.25
2023-05-08T17:20:26.227Z,101382.38
2023-05-08T17:22:53.739Z,101380.41
2023-05-08T17:25:22.236Z,101373.78
2023-05-08T17:27:48.659Z,101381.66
2023-05-08T17:30:16.665Z,101382.09
2023-05-08T17:32:43.225Z,101376.63
2023-05-08T17:35:10.360Z,101383.44
2023-05-08T17:37:36.860Z,101384.16
2023-05-08T17:40:03.756Z,101389.75
2023-05-08T17:42:30.387Z,101392.00
2023-05-08T17:44:56.839Z,101392.00
2023-05-08T17:47:23.276Z,101391.81
2023-05-08T17:49:49.681Z,101387.81
2023-05-08T17:52:16.074Z,101393.66
2023-05-08T17:54:42.434Z,101395.91
2023-05-08T17:57:08.841Z,101403.09
2023-05-08T17:59:35.262Z,101403.59
2023-05-08T18:02:01.643Z,101407.41
2023-05-08T18:04:28.058Z,101404.41
2023-05-08T18:06:54.446Z,101410.06
2023-05-08T18:09:21.029Z,101409.44
2023-05-08T18:11:47.445Z,101408.69
2023-05-08T18:14:13.838Z,101414.97
2023-05-08T18:16:40.208Z,101410.31
2023-05-08T18:19:06.843Z,101418.69
2023-05-08T18:21:33.253Z,101409.75
2023-05-08T18:23:59.629Z,101412.53
2023-05-08T18:26:26.025Z,101410.38
2023-05-08T18:28:52.370Z,101419.50
2023-05-08T18:31:18.765Z,101402.50
2023-05-08T18:33:45.806Z,101416.28
2023-05-08T18:36:12.147Z,101416.09
2023-05-08T18:38:38.604Z,101421.25
2023-05-08T18:41:05.916Z,101424.63
2023-05-08T18:43:32.341Z,101419.88
2023-05-08T18:46:00.465Z,101421.91
2023-05-08T18:48:27.277Z,101422.63
2023-05-08T18:50:55.725Z,101429.50
2023-05-08T18:53:22.058Z,101426.97
2023-05-08T18:55:48.470Z,101422.72
2023-05-08T18:58:14.827Z,101428.16
2023-05-08T19:00:41.326Z,101421.28
2023-05-08T19:03:08.139Z,101423.38
2023-05-08T19:05:34.723Z,101427.59
2023-05-08T19:08:01.096Z,101422.69
2023-05-08T19:10:27.657Z,101426.22
2023-05-08T19:12:54.071Z,101425.47
2023-05-08T19:15:20.495Z,101430.31
2023-05-08T19:17:46.958Z,101426.31
2023-05-08T19:20:13.652Z,101430.59
2023-05-08T19:22:40.295Z,101435.38
2023-05-08T19:25:06.882Z,101433.66
2023-05-08T19:27:33.230Z,101437.03
2023-05-08T19:29:59.616Z,101435.38
2023-05-08T19:32:26.168Z,101436.72
2023-05-08T19:34:53.474Z,101437.81
2023-05-08T19:37:19.809Z,101435.34
2023-05-08T19:39:46.228Z,101450.25
2023-05-08T19:42:13.794Z,101431.88
2023-05-08T19:44:40.243Z,101438.50
2023-05-08T19:47:06.881Z,101430.41
2023-05-08T19:49:33.395Z,101440.00
2023-05-08T19:51:59.733Z,101441.16
2023-05-08T19:54:26.100Z,101434.97
2023-05-08T19:56:52.436Z,101439.53
2023-05-08T19:59:18.774Z,101435.50
2023-05-08T20:01:45.439Z,101438.97
2023-05-08T20:04:12.033Z,101439.41
2023-05-08T20:06:39.192Z,101437.19
2023-05-08T20:09:06.270Z,101445.25
2023-05-08T20:11:32.733Z,101440.75
2023-05-08T20:13:59.114Z,101432.44
2023-05-08T20:16:25.570Z,101429.72
2023-05-08T20:18:53.798Z,101438.91
2023-05-08T20:21:20.591Z,101432.41
2023-05-08T20:23:46.986Z,101434.44
2023-05-08T20:26:13.347Z,101438.00
2023-05-08T20:28:39.723Z,101431.94
2023-05-08T20:31:06.236Z,101437.31
2023-05-08T20:33:32.689Z,101432.28
2023-05-08T20:35:59.050Z,101437.84
2023-05-08T20:38:25.580Z,101435.59
2023-05-08T20:40:54.106Z,101444.53
2023-05-08T20:43:21.660Z,101434.19
2023-05-08T20:45:49.264Z,101428.88
2023-05-08T20:48:15.784Z,101433.53
2023-05-08T20:50:42.189Z,101436.06
2023-05-08T20:53:08.641Z,101437.13
2023-05-08T20:55:35.091Z,101431.88
2023-05-08T20:58:01.861Z,101429.44
2023-05-08T21:00:28.427Z,101426.19
2023-05-08T21:02:54.882Z,101419.84
2023-05-08T21:05:21.285Z,101430.16
2023-05-08T21:07:47.692Z,101428.06
2023-05-08T21:10:14.544Z,101419.75
2023-05-08T21:12:41.174Z,101415.41
2023-05-08T21:15:08.390Z,101410.84
2023-05-08T21:17:34.844Z,101408.19
2023-05-08T21:20:01.214Z,101408.47
2023-05-08T21:22:27.761Z,101407.88
2023-05-08T21:24:54.112Z,101410.50
2023-05-08T21:27:20.586Z,101401.25
2023-05-08T21:29:47.183Z,101411.19
2023-05-08T21:32:13.517Z,101402.59
2023-05-08T21:34:39.904Z,101408.13
2023-05-08T21:37:06.597Z,101404.94
2023-05-08T21:39:32.963Z,101408.81
2023-05-08T21:41:59.303Z,101404.78
2023-05-08T21:44:25.856Z,101396.28
2023-05-08T21:46:52.228Z,101398.22
2023-05-08T21:49:18.579Z,101398.44
2023-05-08T21:51:45.882Z,101384.75
2023-05-08T21:54:12.267Z,101396.38
2023-05-08T21:56:39.003Z,101377.34
2023-05-08T21:59:06.864Z,101385.47
2023-05-08T22:01:33.385Z,101372.56
2023-05-08T22:03:59.924Z,101373.59
2023-05-08T22:06:26.514Z,101369.38
2023-05-08T22:08:52.900Z,101362.47
2023-05-08T22:11:19.241Z,101363.59
2023-05-08T22:13:45.626Z,101351.47
2023-05-08T22:16:12.068Z,101348.91
2023-05-08T22:18:38.431Z,101350.63
2023-05-08T22:21:05.057Z,101344.47
2023-05-08T22:23:33.404Z,101350.72
2023-05-08T22:25:59.780Z,101341.06
2023-05-08T22:28:26.670Z,101350.78
2023-05-08T22:30:53.030Z,101343.50
2023-05-08T22:33:19.399Z,101347.09
2023-05-08T22:35:45.816Z,101346.69
2023-05-08T22:38:12.148Z,101343.91
2023-05-08T22:40:38.747Z,101353.53
2023-05-08T22:43:05.596Z,101346.69
2023-05-08T22:45:32.114Z,101339.69
2023-05-08T22:47:58.603Z,101341.25
2023-05-08T22:50:25.312Z,101332.50
2023-05-08T22:52:51.693Z,101342.97
2023-05-08T22:55:18.177Z,101327.59
2023-05-08T22:57:44.783Z,101332.50
2023-05-08T23:00:11.768Z,101328.72
2023-05-08T23:02:38.222Z,101324.38
2023-05-08T23:05:05.042Z,101327.72
2023-05-08T23:07:31.401Z,101322.13
2023-05-08T23:09:57.751Z,101313.94
2023-05-08T23:12:24.287Z,101311.06
2023-05-08T23:14:50.843Z,101308.44
2023-05-08T23:17:17.185Z,101314.09
2023-05-08T23:19:44.951Z,101313.16
2023-05-08T23:22:11.305Z,101306.94
2023-05-08T23:24:37.667Z,101305.06
2023-05-08T23:27:04.300Z,101306.53
2023-05-08T23:29:30.651Z,101298.84
2023-05-08T23:31:56.981Z,101304.22
2023-05-08T23:34:23.448Z,101295.66
2023-05-08T23:36:49.814Z,101289.50
2023-05-08T23:39:16.168Z,101286.19
2023-05-08T23:41:42.993Z,101279.19
2023-05-08T23:44:10.053Z,101277.59
2023-05-08T23:46:36.451Z,101279.25
2023-05-08T23:49:05.607Z,101270.59
2023-05-08T23:51:32.273Z,101264.38
2023-05-08T23:53:58.626Z,101250.53
2023-05-08T23:56:25.207Z,101247.13
2023-05-08T23:58:51.548Z,101254.13
